createdAt,value
2022-09-12T00:00:03.060Z,13.3
2022-09-12T00:20:02.648Z,13.1
2022-09-12T00:40:03.286Z,12.8
2022-09-12T01:00:02.816Z,12.6
2022-09-12T01:20:02.865Z,12.3
2022-09-12T01:40:02.518Z,12.2
2022-09-12T02:00:03.052Z,12.1
2022-09-12T02:20:03.771Z,11.9
2022-09-12T02:40:02.419Z,11.8
2022-09-12T03:00:03.000Z,11.9
2022-09-12T03:20:02.535Z,12.1
2022-09-12T03:40:02.880Z,12.2
2022-09-12T04:00:02.490Z,12.1
2022-09-12T04:20:02.276Z,12
2022-09-12T04:40:02.790Z,11.7
2022-09-12T05:00:06.559Z,11.7
2022-09-12T05:20:02.682Z,11.7
2022-09-12T05:40:03.200Z,11.8
2022-09-12T06:00:02.910Z,12.1
2022-09-12T06:20:02.550Z,12.6
2022-09-12T06:40:02.976Z,13.2
2022-09-12T07:00:02.561Z,13.9
2022-09-12T07:20:02.440Z,14.7
2022-09-12T07:40:02.868Z,15.7
2022-09-12T08:00:02.731Z,17.2
2022-09-12T08:20:02.480Z,18.8
2022-09-12T08:40:02.865Z,19.6
2022-09-12T09:00:02.477Z,20.1
2022-09-12T09:20:03.018Z,20.9
2022-09-12T09:40:09.721Z,20.6
2022-09-12T10:00:02.260Z,21.7
2022-09-12T10:20:21.361Z,22.3
2022-09-12T10:40:02.582Z,22.8
2022-09-12T11:00:03.279Z,21.8
2022-09-12T11:20:02.981Z,23.2
2022-09-12T11:40:05.683Z,24.5
2022-09-12T12:00:02.426Z,23.9
2022-09-12T12:20:06.645Z,23.5
2022-09-12T12:40:03.419Z,23.3
2022-09-12T13:00:02.945Z,22.8
2022-09-12T13:20:24.011Z,22.3
2022-09-12T13:40:02.719Z,21.8
2022-09-12T14:00:06.825Z,21.5
2022-09-12T14:20:02.521Z,21.5
2022-09-12T14:40:03.196Z,21.4
2022-09-12T15:00:03.124Z,21.2
2022-09-12T15:20:03.024Z,21.1
2022-09-12T15:40:07.333Z,20.8
2022-09-12T16:00:06.875Z,20.6
2022-09-12T16:20:06.020Z,20.4
2022-09-12T16:40:02.932Z,20.2
2022-09-12T17:00:02.864Z,19.9
2022-09-12T17:20:02.551Z,19.6
2022-09-12T17:40:04.385Z,19
2022-09-12T18:00:03.966Z,18.6
2022-09-12T18:20:02.933Z,18.2
2022-09-12T18:40:02.524Z,17.7
2022-09-12T19:00:13.847Z,17.3
2022-09-12T19:20:02.375Z,16.8
2022-09-12T19:40:20.470Z,16.3
2022-09-12T20:00:03.137Z,16.1
2022-09-12T20:20:02.746Z,15.8
2022-09-12T20:40:03.346Z,15.5
2022-09-12T21:00:03.016Z,15.2
2022-09-12T21:20:04.058Z,14.8
2022-09-12T21:40:02.841Z,14.5
2022-09-12T22:00:02.839Z,14.3
2022-09-12T22:20:02.921Z,14.1
2022-09-12T22:40:02.683Z,13.9
2022-09-12T23:00:03.455Z,13.6
2022-09-12T23:20:03.322Z,13.5
2022-09-12T23:40:02.957Z,13.3
